Conway, SC (29527)

7:30 PM EST on February 01, 2015 (GMT -0500)
Red Hill | Change Station
CLOSE
Current Station
Personal Weather Station
Location: Conway, SC
Elevation: 38 ft
Nearby Weather Stations

Elev 38 ft 33.80 °N, 79.04 °W | Updated 5 seconds ago

Partly Cloudy
Partly Cloudy
58.1 °F
Feels Like 58.1 °F
N
1.6
Wind Variable Wind from SSW
Gusts 4.5 mph

Today
High -- | Low -- °F
--% Chance of Precip.
Yesterday
High -- | Low -- °F
Precip. -- in
7:13 AM 5:47 PM
Waxing Gibbous, 96% visible
Pressure 30.06 in
Visibility 7.0 miles
Clouds Clear
Dew Point 51 °F
Humidity 78%
Rainfall 0.00 in
Snow Depth Not available.
UV 0 out of 12
Pollen 3.80 out of 12
Air Quality Not available.
Flu Activity Not available.
METAR KHYW 020015Z AUTO 00000KT 7SM CLR 13/08 A3006 RMK AO2

More Conditions Fewer Conditions

Pressure 30.06 in
Visibility 7.0 miles
Clouds Clear
Dew Point 51 °F
Humidity 78%
Rainfall 0.00 in
Snow Depth Not available.
UV 0 out of 12
Pollen 3.80 out of 12
Air Quality Not available.
Flu Activity Not available.
METAR KHYW 020015Z AUTO 00000KT 7SM CLR 13/08 A3006 RMK AO2

More Conditions Fewer Conditions

10-Day Weather Forecast

Almanac

Astronomy

Feb. 01, 2015 Rise Set
Actual Time
Civil Twilight
Nautical Twilight
Astronomical Twilight
Moon
Length of Visible Light
Length of Day
Tomorrow will be .
, % of the Moon is Illuminated

Today's Extremes

State Highs State Lows

Community

WunderPhotos

Upload Photos

1,792,628 photos uploaded!

WunderBlogs® & News

Nearby

Air Quality

  Air Quality AQ Index Pollutant
Not available.

Snow Depth

Station Depth Elevation

Earthquake Activity

City Distance Mag. Time & Date
Minimum magnitude displayed is 2.5.

Coastal Water Temperatures

Place Temperature

Nearby Weather Stations